Terminal Aerodrome Forecast
Issued by NWS Portland, OR

Home | Current Version | Previous Version | Text Only | Print | Product List | Glossary On
Versions: 1 2 3 4 5 6 7 8 9 10 11 12 13 14 15 16 17 18 19 20 21 22 23 24 25 26
000
FTUS46 KPQR 011452 AAA
TAFPDX
TAF AMD
KPDX 011452Z 0115/0212 12009KT P6SM SCT035 BKN050
      TEMPO 0115/0118 -SHRA
     FM011800 17014G21KT P6SM -SHRA SCT025 OVC040
     FM020200 14006KT P6SM -SHRA BKN040 OVC060=

USA.gov is the U.S. government's official web portal to all federal, state and local government web resources and services.